Time;durP1;ratioP1;P1;durP2;ratioP2;P2;SDS_P1;SDS_P2;PMS_P1;PMS_P2;Temp;Humidity;BMP_temperature;BMP_pressure;BME280_temperature;BME280_humidity;BME280_pressure;Samples;Min_cycle;Max_cycle;Signal;HPM_P1;HPM_P2
2024/04/15 00:01:55;;;;;;;1.20;1.20;;;;;;;14.95;71.30;97282.19;5267111;27;19998;-61
2024/04/15 00:04:22;;;;;;;1.10;1.10;;;;;;;15.00;71.05;97278.25;5266002;27;20006;-62
2024/04/15 00:06:49;;;;;;;1.30;1.30;;;;;;;15.00;70.86;97284.59;5266953;27;20017;-61
2024/04/15 00:09:16;;;;;;;1.20;1.20;;;;;;;14.92;71.11;97271.81;5266202;27;20018;-61
2024/04/15 00:11:45;;;;;;;1.20;1.20;;;;;;;14.94;71.27;97269.44;5267347;27;20002;-63
2024/04/15 00:14:12;;;;;;;1.30;1.30;;;;;;;14.84;71.45;97267.41;5251672;27;20017;-61
2024/04/15 00:16:39;;;;;;;1.20;1.20;;;;;;;14.78;71.99;97265.38;5267129;27;20014;-62
2024/04/15 00:19:06;;;;;;;1.20;1.20;;;;;;;14.82;71.65;97267.03;5267952;27;20477;-61
2024/04/15 00:21:33;;;;;;;1.35;1.35;;;;;;;14.50;71.67;97215.09;5266062;27;20018;-63
2024/04/15 00:24:00;;;;;;;1.20;1.20;;;;;;;14.83;71.16;97267.81;5266778;27;20002;-61
2024/04/15 00:26:27;;;;;;;1.10;1.10;;;;;;;14.60;71.24;97247.81;5266714;27;20038;-62
2024/04/15 00:28:54;;;;;;;1.30;1.30;;;;;;;14.81;70.88;97271.00;5267211;27;20006;-61
2024/04/15 00:31:20;;;;;;;1.20;1.20;;;;;;;14.50;70.68;97220.66;5267116;27;20039;-62
2024/04/15 00:33:47;;;;;;;1.30;1.30;;;;;;;13.88;71.20;97141.91;5265425;27;20002;-62
2024/04/15 00:36:14;;;;;;;1.25;1.25;;;;;;;14.28;72.43;97235.69;5266955;27;20480;-62
2024/04/15 00:38:41;;;;;;;1.20;1.20;;;;;;;14.43;72.54;97276.38;5265043;27;20030;-60
2024/04/15 00:41:08;;;;;;;1.10;1.10;;;;;;;14.32;73.57;97264.38;5266998;27;20006;-61
2024/04/15 00:43:35;;;;;;;1.02;1.02;;;;;;;14.32;73.72;97264.38;5266587;27;20034;-62
2024/04/15 00:46:02;;;;;;;1.15;1.15;;;;;;;14.31;73.81;97268.34;5266919;27;20475;-61
2024/04/15 00:48:29;;;;;;;1.20;1.20;;;;;;;13.97;73.29;97219.56;5267032;27;20012;-61
2024/04/15 00:50:56;;;;;;;1.10;1.10;;;;;;;14.37;73.36;97266.81;5267597;27;20030;-61
2024/04/15 00:53:23;;;;;;;1.10;1.10;;;;;;;14.30;73.98;97266.75;5267929;27;20012;-61
2024/04/15 00:55:53;;;;;;;1.10;1.10;;;;;;;13.61;74.09;97180.31;5085835;26;5001165;-61
2024/04/15 00:58:23;;;;;;;1.00;1.00;;;;;;;14.21;74.22;97269.06;5213528;27;20006;-61
2024/04/15 01:00:53;;;;;;;1.08;1.08;;;;;;;13.88;74.97;97233.03;5265022;27;20029;-61
2024/04/15 01:03:21;;;;;;;1.10;1.10;;;;;;;13.51;75.17;97181.03;5264661;27;20014;-61
2024/04/15 01:05:49;;;;;;;1.08;1.08;;;;;;;14.05;74.95;97254.63;5266626;27;21040;-61
2024/04/15 01:08:17;;;;;;;1.00;1.00;;;;;;;14.01;74.50;97260.16;5264899;27;20002;-61
2024/04/15 01:10:44;;;;;;;1.10;1.10;;;;;;;14.00;74.74;97260.56;5264679;27;20018;-61
2024/04/15 01:13:26;;;;;;;1.10;1.10;;;;;;;13.98;75.35;97260.13;5266194;27;20038;-64
2024/04/15 01:15:57;;;;;;;1.10;1.10;;;;;;;14.01;75.14;97249.03;5263480;26;20080;-61
2024/04/15 01:18:24;;;;;;;1.10;1.10;;;;;;;14.02;75.18;97239.47;5264516;27;20013;-62
2024/04/15 01:20:56;;;;;;;1.13;1.13;;;;;;;14.10;74.73;97240.34;5266154;27;20496;-62
2024/04/15 01:23:26;;;;;;;1.20;1.20;;;;;;;14.10;74.07;97240.34;5266434;27;20021;-61
2024/04/15 01:25:53;;;;;;;1.00;1.00;;;;;;;14.07;74.46;97246.69;5266116;27;20007;-62
2024/04/15 01:28:20;;;;;;;1.02;1.02;;;;;;;13.75;75.02;97220.59;5266648;27;20006;-63
2024/04/15 01:30:47;;;;;;;1.10;1.10;;;;;;;12.06;74.63;96943.88;5264952;27;20035;-62
2024/04/15 01:33:15;;;;;;;1.20;1.20;;;;;;;14.05;74.36;97232.34;5266583;27;19998;-62
2024/04/15 01:35:42;;;;;;;1.10;1.10;;;;;;;14.07;74.34;97236.31;5266515;27;20017;-62
2024/04/15 01:38:08;;;;;;;1.15;1.15;;;;;;;13.97;74.35;97237.06;5266756;27;20002;-61
2024/04/15 01:40:35;;;;;;;1.10;1.10;;;;;;;13.85;74.67;97231.00;5264485;27;20003;-62
2024/04/15 01:43:02;;;;;;;1.15;1.15;;;;;;;13.73;75.01;97237.69;5264365;27;20189;-62
2024/04/15 01:45:29;;;;;;;1.20;1.20;;;;;;;13.47;75.31;97199.69;5265706;27;20007;-62
2024/04/15 01:47:57;;;;;;;1.20;1.20;;;;;;;13.62;76.06;97226.44;5265764;27;20423;-61
2024/04/15 01:50:24;;;;;;;1.00;1.00;;;;;;;13.58;76.09;97225.63;5265776;27;20016;-62
2024/04/15 01:52:50;;;;;;;1.02;1.02;;;;;;;13.38;76.42;97207.56;5265728;27;20027;-61
2024/04/15 01:55:17;;;;;;;1.10;1.10;;;;;;;13.35;77.42;97233.38;5265609;27;20034;-61
2024/04/15 01:57:44;;;;;;;1.10;1.10;;;;;;;13.45;76.97;97238.22;5264087;27;20448;-61
2024/04/15 02:00:12;;;;;;;1.10;1.10;;;;;;;13.37;77.35;97236.56;5265574;27;20711;-61
2024/04/15 02:02:39;;;;;;;1.02;1.02;;;;;;;13.33;77.63;97241.31;5265725;27;20013;-61
2024/04/15 02:05:07;;;;;;;1.00;1.00;;;;;;;13.20;78.79;97231.63;5265142;27;20389;-61
2024/04/15 02:07:36;;;;;;;1.02;1.02;;;;;;;13.26;78.54;97234.88;5264556;27;20017;-61
2024/04/15 02:10:03;;;;;;;1.10;1.10;;;;;;;13.14;77.67;97238.75;5264902;27;20016;-61
2024/04/15 02:12:32;;;;;;;1.00;1.00;;;;;;;12.95;78.23;97229.75;5267208;27;20060;-61
2024/04/15 02:14:59;;;;;;;1.00;1.00;;;;;;;12.83;79.39;97228.06;5265732;27;20020;-61
2024/04/15 02:17:25;;;;;;;1.00;1.00;;;;;;;12.75;79.92;97231.94;5265545;27;20104;-62
2024/04/15 02:19:52;;;;;;;1.00;1.00;;;;;;;12.64;80.94;97231.00;5263078;27;20477;-62
2024/04/15 02:22:19;;;;;;;0.95;0.95;;;;;;;12.39;80.86;97181.88;5263996;27;20044;-63
2024/04/15 02:24:46;;;;;;;1.00;1.00;;;;;;;12.72;81.40;97232.69;5265124;27;20006;-63
2024/04/15 02:27:13;;;;;;;0.93;0.93;;;;;;;12.71;81.62;97230.28;5265323;27;19998;-63
2024/04/15 02:29:40;;;;;;;0.90;0.90;;;;;;;12.70;81.96;97235.03;5263166;27;20438;-61
2024/04/15 02:32:07;;;;;;;1.00;1.00;;;;;;;12.66;81.41;97200.06;5265263;27;20591;-63
2024/04/15 02:34:34;;;;;;;1.00;1.00;;;;;;;12.79;81.10;97212.50;5265298;27;20520;-62
2024/04/15 02:37:01;;;;;;;1.00;1.00;;;;;;;12.89;80.90;97232.09;5264975;27;20030;-62
2024/04/15 02:39:28;;;;;;;1.05;1.05;;;;;;;12.96;79.60;97229.38;5265133;27;20025;-61
2024/04/15 02:41:55;;;;;;;1.00;1.00;;;;;;;12.89;79.41;97237.66;5264905;27;20457;-61
2024/04/15 02:44:22;;;;;;;0.98;0.98;;;;;;;12.38;79.19;97167.16;5264982;27;20007;-63
2024/04/15 02:46:49;;;;;;;1.02;1.02;;;;;;;12.81;78.97;97224.84;5265173;27;20002;-62
2024/04/15 02:49:16;;;;;;;1.00;1.00;;;;;;;12.72;79.05;97210.47;5268623;27;20021;-62
2024/04/15 02:51:43;;;;;;;0.98;0.98;;;;;;;12.23;79.47;97165.41;5267393;27;20009;-62
2024/04/15 02:54:10;;;;;;;0.93;0.93;;;;;;;12.73;79.30;97222.34;5266743;27;20018;-63
2024/04/15 02:56:37;;;;;;;1.02;1.02;;;;;;;12.86;78.75;97227.28;5268097;27;20017;-63
2024/04/15 02:59:04;;;;;;;1.00;1.00;;;;;;;12.28;80.29;97159.53;5268005;27;20489;-62
2024/04/15 03:01:31;;;;;;;0.90;0.90;;;;;;;12.37;80.89;97171.13;5267996;27;20016;-62
2024/04/15 03:03:58;;;;;;;1.00;1.00;;;;;;;12.70;81.46;97221.16;5268354;27;20021;-63
2024/04/15 03:06:25;;;;;;;1.00;1.00;;;;;;;12.79;81.08;97231.94;5266254;27;20018;-62
2024/04/15 03:08:52;;;;;;;0.90;0.90;;;;;;;12.49;81.00;97198.66;5268126;27;20006;-62
2024/04/15 03:11:19;;;;;;;1.00;1.00;;;;;;;12.42;81.20;97195.81;5266167;27;20016;-62
2024/04/15 03:13:47;;;;;;;1.02;1.02;;;;;;;8.74;80.57;96615.03;5268351;27;20018;-62
2024/04/15 03:16:14;;;;;;;1.00;1.00;;;;;;;12.80;80.57;97233.56;5267768;27;20021;-62
2024/04/15 03:18:51;;;;;;;1.00;1.00;;;;;;;12.64;80.77;97230.19;5235603;27;20007;-62
2024/04/15 03:21:18;;;;;;;1.10;1.10;;;;;;;12.54;81.38;97237.22;5257552;27;20002;-63
2024/04/15 03:23:45;;;;;;;1.00;1.00;;;;;;;11.64;81.91;97126.53;5268648;27;20007;-62
2024/04/15 03:26:12;;;;;;;0.90;0.90;;;;;;;12.44;82.13;97237.09;5267695;27;20014;-63
2024/04/15 03:28:39;;;;;;;1.00;1.00;;;;;;;12.38;81.65;97221.94;5268958;27;20015;-62
2024/04/15 03:31:06;;;;;;;0.93;0.93;;;;;;;12.36;81.55;97240.97;5268371;27;20352;-63
2024/04/15 03:33:34;;;;;;;1.00;1.00;;;;;;;12.34;81.89;97230.22;5268745;27;20627;-62
2024/04/15 03:36:01;;;;;;;0.90;0.90;;;;;;;12.31;81.53;97244.88;5266235;27;20007;-62
2024/04/15 03:38:28;;;;;;;1.00;1.00;;;;;;;12.21;81.95;97245.53;5268381;27;20007;-62
2024/04/15 03:40:55;;;;;;;0.90;0.90;;;;;;;12.25;81.54;97234.47;5265574;27;20417;-62
2024/04/15 03:43:21;;;;;;;0.90;0.90;;;;;;;12.10;80.98;97222.34;5267664;27;20030;-62
2024/04/15 03:45:48;;;;;;;0.93;0.93;;;;;;;12.18;80.64;97249.06;5267309;27;20152;-62
2024/04/15 03:48:15;;;;;;;1.00;1.00;;;;;;;12.08;81.39;97246.91;5266085;27;20018;-62
2024/04/15 03:50:42;;;;;;;1.10;1.10;;;;;;;11.94;81.98;97250.31;5267327;27;20007;-61
2024/04/15 03:53:10;;;;;;;0.82;0.82;;;;;;;11.58;83.23;97202.91;5265956;27;20114;-62
2024/04/15 03:55:37;;;;;;;0.82;0.82;;;;;;;11.99;83.24;97254.72;5265416;27;19998;-62
2024/04/15 03:58:03;;;;;;;0.90;0.90;;;;;;;12.05;83.47;97253.22;5267741;27;20006;-62
2024/04/15 04:00:30;;;;;;;1.00;1.00;;;;;;;12.11;83.89;97251.72;5267271;27;20018;-62
2024/04/15 04:02:57;;;;;;;0.90;0.90;;;;;;;12.11;84.38;97237.84;5267632;27;20421;-62
2024/04/15 04:05:24;;;;;;;0.90;0.90;;;;;;;11.70;84.26;97177.75;5267187;27;20125;-64
2024/04/15 04:07:51;;;;;;;0.90;0.90;;;;;;;11.80;83.22;97163.25;5268007;27;20002;-63
2024/04/15 04:10:18;;;;;;;0.90;0.90;;;;;;;12.41;82.32;97238.66;5267495;27;20002;-62
2024/04/15 04:12:46;;;;;;;0.90;0.90;;;;;;;12.54;81.55;97240.00;5266536;27;20025;-64
2024/04/15 04:15:13;;;;;;;0.98;0.98;;;;;;;12.67;80.29;97235.00;5265892;27;20094;-62
2024/04/15 04:17:40;;;;;;;0.90;0.90;;;;;;;12.73;79.95;97245.41;5267544;27;20018;-62
2024/04/15 04:20:07;;;;;;;1.00;1.00;;;;;;;12.86;79.33;97241.19;5267334;27;20077;-62
2024/04/15 04:22:34;;;;;;;1.10;1.10;;;;;;;12.97;79.04;97235.75;5267413;27;20058;-63
2024/04/15 04:25:01;;;;;;;1.08;1.08;;;;;;;13.07;78.81;97233.09;5266452;27;20017;-62
2024/04/15 04:27:28;;;;;;;1.02;1.02;;;;;;;12.78;78.32;97164.47;5266921;27;20200;-62
2024/04/15 04:29:55;;;;;;;1.10;1.10;;;;;;;12.42;79.79;97154.13;5267214;27;20017;-62
2024/04/15 04:32:22;;;;;;;1.00;1.00;;;;;;;12.83;79.04;97178.00;5267759;27;20006;-62
2024/04/15 04:34:49;;;;;;;1.00;1.00;;;;;;;13.31;78.40;97243.66;5267224;27;20348;-62
2024/04/15 04:37:15;;;;;;;1.00;1.00;;;;;;;13.42;77.77;97236.22;5265273;27;20010;-62
2024/04/15 04:39:43;;;;;;;1.10;1.10;;;;;;;13.60;76.51;97239.97;5266682;27;20003;-62
2024/04/15 04:42:09;;;;;;;1.02;1.02;;;;;;;13.70;75.74;97232.88;5267013;27;20021;-64
2024/04/15 04:44:36;;;;;;;1.20;1.20;;;;;;;13.70;75.51;97211.41;5266795;27;20077;-62
2024/04/15 04:47:03;;;;;;;1.10;1.10;;;;;;;14.03;75.37;97252.22;5266784;27;20464;-62
2024/04/15 04:49:30;;;;;;;1.10;1.10;;;;;;;14.15;75.13;97237.16;5267227;27;20473;-63
2024/04/15 04:51:57;;;;;;;1.10;1.10;;;;;;;14.17;75.60;97241.16;5266666;27;20003;-63
2024/04/15 04:54:24;;;;;;;1.05;1.05;;;;;;;14.12;75.13;97182.22;5267572;27;20017;-62
2024/04/15 04:56:52;;;;;;;1.20;1.20;;;;;;;14.72;73.71;97245.47;5265184;27;20006;-62
2024/04/15 04:59:19;;;;;;;1.20;1.20;;;;;;;14.84;72.52;97239.53;5267961;27;20474;-61
2024/04/15 05:01:46;;;;;;;1.10;1.10;;;;;;;14.95;72.24;97231.22;5264284;27;20043;-61
2024/04/15 05:04:13;;;;;;;1.17;1.17;;;;;;;14.79;71.85;97183.34;5266732;27;20006;-62
2024/04/15 05:06:40;;;;;;;1.30;1.30;;;;;;;15.13;71.09;97287.84;5255980;26;20006;-62
2024/04/15 05:09:07;;;;;;;1.15;1.15;;;;;;;14.48;70.93;97117.16;5265095;27;20014;-62
2024/04/15 05:11:37;;;;;;;1.40;1.40;;;;;;;15.04;70.83;97185.00;5257824;27;20026;-63
2024/04/15 05:14:04;;;;;;;1.38;1.38;;;;;;;15.48;70.49;97223.75;5231841;27;20011;-61
2024/04/15 05:16:31;;;;;;;1.25;1.25;;;;;;;14.76;69.86;97094.91;5258783;27;20034;-62
2024/04/15 05:18:58;;;;;;;1.40;1.40;;;;;;;15.38;69.96;97165.91;5264595;27;20033;-64
2024/04/15 05:21:25;;;;;;;1.48;1.48;;;;;;;15.44;67.98;97114.09;5265840;27;20014;-62
2024/04/15 05:23:54;;;;;;;1.30;1.30;;;;;;;16.27;67.06;97210.09;5267100;27;20002;-63
2024/04/15 05:26:21;;;;;;;1.50;1.50;;;;;;;16.28;66.48;97211.69;5265929;27;20010;-61
2024/04/15 05:28:48;;;;;;;1.38;1.38;;;;;;;16.51;65.81;97214.06;5266292;27;20022;-62
2024/04/15 05:31:15;;;;;;;1.40;1.40;;;;;;;16.75;64.63;97203.97;5265541;27;20438;-62
2024/04/15 05:33:42;;;;;;;1.70;1.70;;;;;;;16.97;63.07;97206.25;5266267;27;20021;-63
2024/04/15 05:36:09;;;;;;;1.60;1.60;;;;;;;16.63;62.62;97137.31;5264144;27;20003;-62
2024/04/15 05:38:35;;;;;;;1.60;1.60;;;;;;;17.25;63.68;97206.09;5267008;27;20050;-62
2024/04/15 05:41:02;;;;;;;1.58;1.58;;;;;;;17.37;63.49;97224.44;5263872;27;20034;-61
2024/04/15 05:43:29;;;;;;;1.63;1.63;;;;;;;15.50;63.23;96877.97;5244374;27;20010;-61
2024/04/15 05:45:56;;;;;;;1.90;1.90;;;;;;;17.77;62.85;97210.53;5247138;27;20077;-70
2024/04/15 05:48:25;;;;;;;1.80;1.80;;;;;;;17.12;61.33;97107.00;5265048;27;20017;-64
2024/04/15 05:50:52;;;;;;;1.70;1.70;;;;;;;18.17;60.17;97200.56;5265320;27;20038;-62
2024/04/15 05:53:19;;;;;;;1.67;1.67;;;;;;;18.26;59.12;97186.81;5261725;27;20317;-63
2024/04/15 05:55:46;;;;;;;1.83;1.83;;;;;;;18.33;58.22;97169.94;5254306;27;20006;-70
2024/04/15 05:58:13;;;;;;;1.88;1.88;;;;;;;18.70;57.80;97195.16;5262225;27;20007;-62
2024/04/15 06:00:40;;;;;;;1.90;1.90;;;;;;;18.22;57.16;97115.97;5265657;27;20017;-64
2024/04/15 06:03:06;;;;;;;1.90;1.90;;;;;;;19.03;56.52;97197.13;5262615;27;20011;-60
2024/04/15 06:05:34;;;;;;;1.80;1.80;;;;;;;18.78;56.01;97140.53;5263551;27;20010;-59
2024/04/15 06:08:01;;;;;;;1.90;1.90;;;;;;;18.81;55.63;97134.06;5263841;27;20030;-62
2024/04/15 06:10:28;;;;;;;2.17;2.17;;;;;;;18.94;55.36;97121.06;5264039;27;20003;-65
2024/04/15 06:12:55;;;;;;;2.20;2.20;;;;;;;19.33;55.51;97165.44;5263810;27;20006;-69
2024/04/15 06:15:21;;;;;;;2.22;2.22;;;;;;;19.34;55.52;97128.50;5264656;27;20018;-67
2024/04/15 06:17:48;;;;;;;2.10;2.10;;;;;;;19.84;56.79;97189.53;5265019;27;20226;-62
2024/04/15 06:20:15;;;;;;;2.40;2.40;;;;;;;19.94;56.97;97183.69;5263879;27;20097;-62
2024/04/15 06:22:46;;;;;;;2.17;2.17;;;;;;;18.68;56.99;96939.44;5263619;27;20520;-64
2024/04/15 06:25:13;;;;;;;2.30;2.30;;;;;;;19.91;56.08;97119.09;5265328;27;20003;-68
2024/04/15 06:27:40;;;;;;;2.30;2.30;;;;;;;20.02;55.44;97184.38;5268140;27;20002;-69
2024/04/15 06:30:08;;;;;;;2.08;2.08;;;;;;;19.53;54.71;97068.78;5290829;27;20929;-69
2024/04/15 06:32:35;;;;;;;1.92;1.92;;;;;;;20.35;54.22;97187.00;5264648;27;20013;-65
2024/04/15 06:35:02;;;;;;;2.50;2.40;;;;;;;20.91;53.52;97176.63;5266156;27;20465;-66
2024/04/15 06:37:29;;;;;;;2.30;2.30;;;;;;;20.76;53.01;97130.25;5266331;27;20002;-69
2024/04/15 06:39:56;;;;;;;2.03;2.03;;;;;;;20.77;54.01;97168.47;5266391;27;20006;-67
2024/04/15 06:42:23;;;;;;;2.60;2.50;;;;;;;20.89;53.27;97176.25;5267778;27;20022;-61
2024/04/15 06:44:50;;;;;;;2.55;2.45;;;;;;;21.21;51.98;97169.94;5268094;27;20025;-61
2024/04/15 06:47:17;;;;;;;2.17;2.17;;;;;;;21.52;51.17;97172.03;5266992;27;20003;-68
2024/04/15 06:49:44;;;;;;;2.50;2.40;;;;;;;21.82;50.80;97173.72;5266153;27;20022;-68
2024/04/15 06:52:11;;;;;;;2.25;2.22;;;;;;;22.05;50.90;97170.72;5265904;27;20011;-60
2024/04/15 06:54:42;;;;;;;2.20;2.20;;;;;;;22.03;50.23;97154.25;5266966;27;20062;-66
2024/04/15 06:57:08;;;;;;;2.22;2.22;;;;;;;22.02;50.60;97143.41;5264900;27;20006;-62
2024/04/15 06:59:35;;;;;;;2.53;2.42;;;;;;;22.38;49.95;97147.63;5267673;27;20034;-65
2024/04/15 07:02:02;;;;;;;2.13;2.13;;;;;;;22.32;49.99;97109.88;5267624;27;20022;-65
2024/04/15 07:04:29;;;;;;;2.70;2.60;;;;;;;22.78;49.05;97138.88;5267611;27;20343;-64
2024/04/15 07:06:56;;;;;;;2.67;2.58;;;;;;;22.93;47.16;97132.34;5266665;27;20046;-60
2024/04/15 07:09:24;;;;;;;2.50;2.40;;;;;;;23.25;47.14;97145.50;5266996;27;20019;-61
2024/04/15 07:11:50;;;;;;;2.90;2.80;;;;;;;23.38;47.59;97143.50;5265972;27;20012;-61
2024/04/15 07:14:17;;;;;;;2.47;2.40;;;;;;;23.57;45.53;97148.13;5266899;27;20021;-60
2024/04/15 07:16:44;;;;;;;2.55;2.45;;;;;;;23.77;44.70;97140.19;5264203;27;20085;-61
2024/04/15 07:19:11;;;;;;;2.78;2.67;;;;;;;23.53;44.70;97102.22;5264995;27;20081;-62
2024/04/15 07:21:38;;;;;;;2.72;2.63;;;;;;;23.92;43.71;97141.28;5265081;27;20020;-60
2024/04/15 07:24:05;;;;;;;2.72;2.63;;;;;;;23.70;44.66;97114.97;5264807;27;20021;-60
2024/04/15 07:26:32;;;;;;;2.55;2.45;;;;;;;23.96;44.26;97130.66;5265933;27;19998;-61
2024/04/15 07:28:59;;;;;;;3.15;3.05;;;;;;;23.97;44.14;97086.97;5263673;27;20006;-60
2024/04/15 07:31:26;;;;;;;2.83;2.72;;;;;;;24.36;44.45;97130.91;5264351;27;20002;-65
2024/04/15 07:33:56;;;;;;;2.75;2.65;;;;;;;24.46;44.83;97118.38;5264292;27;20010;-64
2024/04/15 07:36:23;;;;;;;2.90;2.80;;;;;;;24.59;44.39;97119.91;5267321;27;20084;-63
2024/04/15 07:38:50;;;;;;;2.88;2.78;;;;;;;24.27;44.11;97043.84;5265988;27;20042;-65
2024/04/15 07:41:17;;;;;;;3.05;2.95;;;;;;;24.77;43.96;97117.22;5266172;27;20006;-63
2024/04/15 07:43:45;;;;;;;3.20;3.10;;;;;;;24.93;43.71;97119.06;5265761;27;20006;-61
2024/04/15 07:46:12;;;;;;;2.97;2.88;;;;;;;24.80;43.87;97113.47;5255449;27;20002;-67
2024/04/15 07:48:39;;;;;;;3.00;2.90;;;;;;;24.89;43.30;97093.69;5265841;27;20354;-66
2024/04/15 07:51:06;;;;;;;3.20;3.10;;;;;;;25.23;43.15;97110.56;5266228;27;20040;-60
2024/04/15 07:53:33;;;;;;;2.92;2.83;;;;;;;25.41;42.41;97103.41;5265088;27;20002;-60
2024/04/15 07:55:59;;;;;;;3.20;3.10;;;;;;;24.92;42.41;97004.91;5261382;27;20015;-65
2024/04/15 07:58:26;;;;;;;3.00;2.90;;;;;;;24.35;42.85;97033.81;5266457;27;20006;-60
2024/04/15 08:00:55;;;;;;;3.30;3.20;;;;;;;25.09;42.39;97082.78;5264371;27;20017;-64
2024/04/15 08:03:22;;;;;;;3.17;3.08;;;;;;;25.27;42.21;97060.19;5265137;27;20021;-67
2024/04/15 08:05:49;;;;;;;3.33;3.22;;;;;;;25.72;40.60;97079.41;5263510;27;20396;-62
2024/04/15 08:08:16;;;;;;;3.10;3.00;;;;;;;25.71;41.17;97085.56;5265953;27;20366;-61
2024/04/15 08:10:43;;;;;;;2.97;2.88;;;;;;;25.70;41.35;97052.75;5266664;27;20013;-67
2024/04/15 08:13:10;;;;;;;3.30;3.20;;;;;;;25.90;40.82;97021.88;5264989;27;20002;-62
2024/04/15 08:15:37;;;;;;;3.50;3.40;;;;;;;26.43;40.18;97082.84;5264923;27;20009;-60
2024/04/15 08:18:04;;;;;;;3.30;3.20;;;;;;;26.25;39.72;97077.94;5264636;27;20025;-62
2024/04/15 08:20:31;;;;;;;3.20;3.10;;;;;;;24.65;39.67;96899.91;5258142;27;20086;-69
2024/04/15 08:22:58;;;;;;;3.25;3.15;;;;;;;25.89;39.75;97071.41;5250379;27;20037;-62
2024/04/15 08:25:25;;;;;;;3.25;3.15;;;;;;;26.09;39.55;97074.59;5243470;27;20026;-65
2024/04/15 08:27:52;;;;;;;3.40;3.30;;;;;;;26.28;40.23;97071.31;5266128;27;20564;-57
2024/04/15 08:30:19;;;;;;;3.42;3.33;;;;;;;26.08;39.41;96976.50;5264648;26;20006;-64
2024/04/15 08:32:50;;;;;;;3.40;3.30;;;;;;;26.15;39.27;97050.00;5265185;27;20018;-60
2024/04/15 08:35:17;;;;;;;3.70;3.60;;;;;;;26.04;38.67;97001.41;5266017;27;20466;-70
2024/04/15 08:37:44;;;;;;;3.60;3.50;;;;;;;26.58;38.46;97072.38;5264764;27;20353;-65
2024/04/15 08:40:12;;;;;;;3.42;3.33;;;;;;;26.48;38.60;97013.97;5262160;27;20072;-61
2024/04/15 08:42:50;;;;;;;3.83;3.72;;;;;;;26.30;38.08;96994.91;5260903;27;20089;-63
2024/04/15 08:45:27;;;;;;;3.55;3.45;;;;;;;26.83;37.98;97037.94;5258930;27;20076;-61
2024/04/15 08:47:57;;;;;;;3.30;3.20;;;;;;;26.62;37.60;97048.22;5264747;27;20079;-61
2024/04/15 08:50:26;;;;;;;3.65;3.55;;;;;;;26.77;38.04;97042.69;5263992;27;20004;-61
2024/04/15 08:52:55;;;;;;;4.13;4.03;;;;;;;26.39;38.06;96968.53;5262638;27;20006;-64
2024/04/15 08:55:23;;;;;;;3.60;3.50;;;;;;;25.52;38.12;96803.06;5261928;27;20014;-58
2024/04/15 08:57:52;;;;;;;3.50;3.40;;;;;;;26.95;37.84;96991.47;5265213;27;20006;-60
2024/04/15 09:00:21;;;;;;;3.60;3.50;;;;;;;27.01;37.85;96981.03;5266425;27;20089;-63
2024/04/15 09:02:51;;;;;;;3.95;3.85;;;;;;;25.72;37.71;96809.03;5266103;27;20013;-58
2024/04/15 09:05:19;;;;;;;3.85;3.75;;;;;;;26.20;39.11;96925.19;5263625;27;20080;-60
2024/04/15 09:07:46;;;;;;;3.83;3.72;;;;;;;27.03;38.03;97023.97;5232606;27;20055;-68
2024/04/15 09:10:13;;;;;;;3.47;3.38;;;;;;;26.80;38.35;97021.84;5261424;27;20003;-64
2024/04/15 09:12:42;;;;;;;3.80;3.70;;;;;;;27.15;37.81;97025.03;5263573;27;20006;-69
2024/04/15 09:15:10;;;;;;;3.65;3.55;;;;;;;27.21;37.44;96995.44;5265060;27;20570;-63
2024/04/15 09:17:37;;;;;;;3.58;3.47;;;;;;;27.61;37.20;97018.66;5264174;27;20018;-71
2024/04/15 09:20:05;;;;;;;3.80;3.70;;;;;;;27.71;36.65;97005.94;5265492;27;20011;-60
2024/04/15 09:22:34;;;;;;;3.88;3.78;;;;;;;27.47;37.72;97013.69;5265808;27;20084;-68
2024/04/15 09:25:01;;;;;;;3.33;3.22;;;;;;;26.47;37.29;96850.47;5263749;27;20324;-69
2024/04/15 09:27:28;;;;;;;3.58;3.47;;;;;;;27.74;36.50;97004.94;5265783;27;20021;-69
2024/04/15 09:29:57;;;;;;;3.85;3.75;;;;;;;28.01;36.81;97007.63;5265029;27;20002;-71
2024/04/15 09:32:24;;;;;;;4.00;3.90;;;;;;;27.94;36.56;96993.78;5263037;27;20149;-66
2024/04/15 09:34:56;;;;;;;3.80;3.70;;;;;;;28.15;36.05;96981.25;5259609;27;20467;-61
2024/04/15 09:37:24;;;;;;;4.00;3.90;;;;;;;27.92;36.03;96949.97;5264045;27;20338;-59
2024/04/15 09:39:52;;;;;;;4.10;4.00;;;;;;;28.04;35.66;96949.69;5269160;26;20471;-62
2024/04/15 09:42:20;;;;;;;3.50;3.40;;;;;;;28.30;36.53;96977.63;5264311;27;20038;-59
2024/04/15 09:44:50;;;;;;;3.90;3.80;;;;;;;28.70;35.37;96966.47;5241881;27;20015;-60
2024/04/15 09:47:18;;;;;;;3.80;3.70;;;;;;;28.99;35.51;96963.59;5266197;27;20046;-61
2024/04/15 09:49:46;;;;;;;4.10;4.00;;;;;;;29.07;35.20;96944.81;5265965;27;20299;-58
2024/04/15 09:52:22;;;;;;;4.25;4.15;;;;;;;29.52;34.63;96961.31;5266696;27;20002;-61
2024/04/15 09:54:55;;;;;;;4.20;4.10;;;;;;;29.57;34.51;96960.59;5265795;27;20006;-58
2024/04/15 09:57:26;;;;;;;4.20;4.10;;;;;;;28.85;34.71;96956.63;5266031;27;20410;-61
2024/04/15 09:59:57;;;;;;;3.97;3.88;;;;;;;29.22;34.82;96942.72;5267334;27;20534;-61
2024/04/15 10:02:33;;;;;;;4.25;4.15;;;;;;;29.51;33.74;96948.31;5269250;27;20021;-60
2024/04/15 10:05:08;;;;;;;4.40;4.30;;;;;;;29.63;33.93;96941.47;5217119;27;20085;-61
2024/04/15 10:07:39;;;;;;;3.90;3.80;;;;;;;29.26;33.86;96912.66;5267051;27;20612;-62
2024/04/15 10:10:10;;;;;;;4.40;4.30;;;;;;;29.12;35.34;96941.25;5241605;27;20020;-60
2024/04/15 10:12:37;;;;;;;3.95;3.85;;;;;;;28.82;34.64;96934.78;5267000;27;20014;-58
2024/04/15 10:15:05;;;;;;;4.45;4.35;;;;;;;29.04;34.34;96934.34;5244782;27;20457;-58
2024/04/15 10:17:32;;;;;;;4.18;4.07;;;;;;;29.39;34.19;96926.59;5267551;27;20505;-65
2024/04/15 10:20:07;;;;;;;4.53;4.43;;;;;;;29.43;34.14;96910.06;5267763;27;21922;-60
2024/04/15 10:22:34;;;;;;;4.32;4.22;;;;;;;29.35;33.83;96886.06;5267578;27;20030;-61
2024/04/15 10:25:01;;;;;;;4.07;3.97;;;;;;;29.30;33.70;96869.66;5256106;26;20494;-66
2024/04/15 10:27:28;;;;;;;4.60;4.50;;;;;;;29.22;33.48;96837.13;5266986;27;20010;-62
2024/04/15 10:29:55;;;;;;;3.92;3.83;;;;;;;29.49;33.40;96868.09;5267562;27;20363;-68
2024/04/15 10:32:25;;;;;;;3.85;3.75;;;;;;;28.78;33.37;96876.41;5278322;27;20024;-61
2024/04/15 10:34:55;;;;;;;4.07;3.97;;;;;;;28.97;33.59;96866.31;5299374;27;20490;-70
2024/04/15 10:37:29;;;;;;;3.88;3.78;;;;;;;29.17;33.44;96863.50;5234493;27;20156;-63
2024/04/15 10:40:03;;;;;;;4.28;4.18;;;;;;;29.47;32.13;96887.78;5275349;26;20534;-64
2024/04/15 10:42:30;;;;;;;4.13;4.03;;;;;;;29.21;31.16;96829.84;5274183;27;20002;-62
2024/04/15 10:44:58;;;;;;;4.57;4.47;;;;;;;28.30;31.70;96655.63;5283084;26;20015;-66
2024/04/15 10:47:25;;;;;;;4.40;4.30;;;;;;;29.78;32.01;96873.69;5267834;27;20006;-61
2024/04/15 10:49:52;;;;;;;4.40;4.30;;;;;;;29.75;31.13;96862.47;5276578;27;20465;-68
2024/04/15 10:52:20;;;;;;;4.28;4.18;;;;;;;29.00;30.46;96836.78;5284837;26;20033;-62
2024/04/15 10:54:47;;;;;;;4.20;4.10;;;;;;;29.67;30.96;96839.25;5296726;27;20019;-68
2024/04/15 10:57:14;;;;;;;4.55;4.45;;;;;;;29.94;28.93;96864.47;5263217;27;20183;-61
2024/04/15 10:59:41;;;;;;;3.70;3.60;;;;;;;28.11;28.78;96695.78;5287464;26;20153;-65
2024/04/15 11:02:09;;;;;;;4.30;4.20;;;;;;;29.90;28.68;96863.94;5253665;27;20059;-61
2024/04/15 11:04:37;;;;;;;4.78;4.68;;;;;;;29.46;29.09;96786.31;5282669;27;20016;-67
2024/04/15 11:07:04;;;;;;;4.25;4.15;;;;;;;30.02;27.56;96834.16;5265532;27;20025;-62
2024/04/15 11:09:31;;;;;;;4.35;4.25;;;;;;;29.36;27.57;96727.78;5284123;27;20016;-61
2024/04/15 11:11:58;;;;;;;4.68;4.57;;;;;;;30.16;26.81;96818.97;5275030;27;20017;-73
2024/04/15 11:14:25;;;;;;;4.38;4.28;;;;;;;30.39;27.59;96834.28;5269926;27;20007;-60
2024/04/15 11:16:52;;;;;;;4.30;4.20;;;;;;;29.41;27.27;96667.13;5267538;27;20005;-70
2024/04/15 11:19:22;;;;;;;4.38;4.28;;;;;;;30.15;27.27;96811.69;5293811;27;20005;-65
2024/04/15 11:22:01;;;;;;;4.28;4.18;;;;;;;30.02;26.50;96797.03;5295757;27;20001;-69
2024/04/15 11:24:29;;;;;;;4.30;4.20;;;;;;;29.93;26.89;96777.22;5288596;27;20009;-66
2024/04/15 11:26:56;;;;;;;4.88;4.78;;;;;;;30.74;26.47;96807.00;5287478;27;20438;-62
2024/04/15 11:29:23;;;;;;;4.25;4.15;;;;;;;30.98;27.22;96810.28;5264609;27;20030;-70
2024/04/15 11:31:50;;;;;;;4.50;4.40;;;;;;;30.88;26.20;96776.69;5287387;27;20333;-61
2024/04/15 11:34:17;;;;;;;4.47;4.38;;;;;;;30.98;26.00;96804.56;5283446;27;20012;-67
2024/04/15 11:36:45;;;;;;;4.78;4.68;;;;;;;30.62;26.61;96725.28;5260391;27;20014;-61